createdAt,value
2023-03-06T00:00:56.350Z,517.00
2023-03-06T00:01:57.415Z,516.00
2023-03-06T00:02:56.327Z,521.00
2023-03-06T00:03:58.021Z,520.00
2023-03-06T00:04:57.302Z,519.00
2023-03-06T00:05:56.333Z,518.00
2023-03-06T00:06:57.299Z,516.00
2023-03-06T00:07:57.322Z,518.00
2023-03-06T00:08:57.290Z,520.00
2023-03-06T00:09:57.272Z,515.00
2023-03-06T00:10:57.290Z,524.00
2023-03-06T00:11:57.250Z,520.00
2023-03-06T00:12:57.247Z,517.00
2023-03-06T00:13:57.241Z,520.00
2023-03-06T00:14:57.225Z,522.00
2023-03-06T00:15:57.259Z,524.00
2023-03-06T00:16:57.215Z,523.00
2023-03-06T00:17:57.209Z,523.00
2023-03-06T00:18:56.197Z,522.00
2023-03-06T00:19:56.188Z,521.00
2023-03-06T00:20:57.179Z,520.00
2023-03-06T00:21:57.176Z,516.00
2023-03-06T00:22:56.166Z,522.00
2023-03-06T00:23:57.201Z,526.00
2023-03-06T00:24:57.163Z,527.00
2023-03-06T00:25:57.164Z,524.00
2023-03-06T00:26:56.144Z,530.00
2023-03-06T00:27:56.150Z,528.00
2023-03-06T00:28:56.138Z,534.00
2023-03-06T00:29:56.109Z,528.00
2023-03-06T00:30:57.111Z,534.00
2023-03-06T00:31:57.124Z,535.00
2023-03-06T00:32:57.098Z,539.00
2023-03-06T00:33:56.116Z,543.00
2023-03-06T00:34:56.195Z,546.00
2023-03-06T00:35:57.325Z,547.00
2023-03-06T00:36:57.268Z,551.00
2023-03-06T00:37:57.328Z,551.00
2023-03-06T00:38:57.385Z,552.00
2023-03-06T00:39:57.477Z,554.00
2023-03-06T00:40:57.497Z,551.00
2023-03-06T00:41:57.535Z,552.00
2023-03-06T00:42:57.595Z,552.00
2023-03-06T00:43:56.646Z,554.00
2023-03-06T00:44:57.685Z,552.00
2023-03-06T00:45:57.853Z,554.00
2023-03-06T00:46:56.781Z,553.00
2023-03-06T00:47:57.830Z,554.00
2023-03-06T00:48:57.868Z,555.00
2023-03-06T00:49:56.902Z,557.00
2023-03-06T00:50:57.942Z,556.00
2023-03-06T00:51:57.980Z,553.00
2023-03-06T00:52:57.028Z,556.00
2023-03-06T00:53:58.062Z,556.00
2023-03-06T00:54:57.076Z,554.00
2023-03-06T00:55:57.137Z,551.00
2023-03-06T00:56:57.135Z,553.00
2023-03-06T00:57:57.175Z,555.00
2023-03-06T00:58:58.204Z,559.00
2023-03-06T00:59:58.234Z,559.00
2023-03-06T01:00:58.289Z,557.00
2023-03-06T01:01:57.286Z,556.00
2023-03-06T01:02:58.313Z,558.00
2023-03-06T01:03:58.344Z,554.00
2023-03-06T01:04:58.371Z,560.00
2023-03-06T01:05:58.395Z,561.00
2023-03-06T01:06:58.428Z,557.00
2023-03-06T01:07:57.453Z,556.00
2023-03-06T01:08:57.471Z,558.00
2023-03-06T01:09:58.500Z,562.00
2023-03-06T01:10:58.512Z,556.00
2023-03-06T01:11:58.569Z,559.00
2023-03-06T01:12:57.558Z,557.00
2023-03-06T01:13:58.603Z,560.00
2023-03-06T01:14:57.611Z,555.00
2023-03-06T01:15:58.621Z,563.00
2023-03-06T01:16:57.652Z,562.00
2023-03-06T01:17:58.662Z,565.00
2023-03-06T01:18:57.692Z,561.00
2023-03-06T01:19:58.694Z,562.00
2023-03-06T01:20:58.724Z,557.00
2023-03-06T01:21:58.745Z,563.00
2023-03-06T01:22:58.745Z,564.00
2023-03-06T01:23:58.765Z,562.00
2023-03-06T01:24:58.770Z,558.00
2023-03-06T01:25:58.774Z,565.00
2023-03-06T01:26:57.801Z,557.00
2023-03-06T01:27:58.856Z,561.00
2023-03-06T01:28:58.811Z,556.00
2023-03-06T01:29:58.837Z,564.00
2023-03-06T01:30:58.846Z,562.00
2023-03-06T01:31:58.924Z,558.00
2023-03-06T01:32:58.862Z,560.00
2023-03-06T01:33:58.907Z,557.00
2023-03-06T01:34:58.907Z,559.00
2023-03-06T01:35:58.881Z,566.00
2023-03-06T01:36:58.904Z,567.00
2023-03-06T01:37:57.910Z,565.00
2023-03-06T01:38:58.927Z,564.00
2023-03-06T01:39:58.952Z,561.00
2023-03-06T01:40:58.939Z,556.00
2023-03-06T01:41:58.944Z,563.00
2023-03-06T01:42:58.942Z,559.00
2023-03-06T01:43:59.002Z,563.00
2023-03-06T01:44:59.007Z,565.00
2023-03-06T01:45:59.017Z,564.00
2023-03-06T01:46:58.951Z,564.00
2023-03-06T01:47:58.953Z,561.00
2023-03-06T01:48:58.974Z,556.00
2023-03-06T01:49:58.972Z,561.00
2023-03-06T01:50:58.962Z,561.00
2023-03-06T01:51:58.975Z,558.00
2023-03-06T01:52:58.997Z,566.00
2023-03-06T01:53:58.990Z,567.00
2023-03-06T01:54:57.977Z,562.00
2023-03-06T01:55:58.971Z,564.00
2023-03-06T01:56:58.964Z,560.00
2023-03-06T01:57:58.976Z,559.00
2023-03-06T01:58:58.956Z,559.00
2023-03-06T01:59:58.966Z,564.00
2023-03-06T02:00:58.977Z,554.00
2023-03-06T02:01:57.972Z,555.00
2023-03-06T02:02:59.011Z,565.00
2023-03-06T02:03:59.016Z,559.00
2023-03-06T02:04:58.964Z,559.00
2023-03-06T02:05:57.961Z,558.00
2023-03-06T02:06:58.970Z,562.00
2023-03-06T02:07:58.960Z,560.00
2023-03-06T02:08:58.968Z,565.00
2023-03-06T02:09:58.988Z,559.00
2023-03-06T02:10:58.982Z,564.00
2023-03-06T02:11:59.014Z,555.00
2023-03-06T02:12:58.028Z,562.00
2023-03-06T02:13:58.045Z,562.00
2023-03-06T02:14:59.179Z,557.00
2023-03-06T02:15:59.119Z,555.00
2023-03-06T02:16:58.155Z,564.00
2023-03-06T02:17:58.139Z,562.00
2023-03-06T02:18:59.153Z,553.00
2023-03-06T02:19:59.209Z,561.00
2023-03-06T02:20:58.206Z,557.00
2023-03-06T02:21:59.208Z,562.00
2023-03-06T02:22:59.242Z,565.00
2023-03-06T02:23:59.266Z,562.00
2023-03-06T02:24:59.300Z,564.00
2023-03-06T02:25:59.338Z,564.00
2023-03-06T02:26:58.370Z,559.00
2023-03-06T02:27:59.404Z,552.00
2023-03-06T02:28:59.419Z,558.00
2023-03-06T02:29:59.448Z,567.00
2023-03-06T02:30:58.527Z,562.00
2023-03-06T02:31:59.675Z,561.00
2023-03-06T02:32:59.552Z,561.00
2023-03-06T02:33:58.594Z,562.00
2023-03-06T02:34:59.629Z,563.00
2023-03-06T02:35:59.692Z,559.00
2023-03-06T02:36:59.694Z,561.00
2023-03-06T02:37:59.700Z,554.00
2023-03-06T02:38:59.767Z,564.00
2023-03-06T02:39:59.764Z,558.00
2023-03-06T02:40:59.818Z,558.00
2023-03-06T02:41:59.815Z,561.00
2023-03-06T02:42:59.837Z,562.00
2023-03-06T02:43:59.866Z,557.00
2023-03-06T02:44:59.881Z,561.00
2023-03-06T02:45:59.912Z,555.00
2023-03-06T02:46:59.912Z,561.00
2023-03-06T02:47:59.966Z,562.00
2023-03-06T02:48:59.968Z,556.00
2023-03-06T02:49:59.976Z,552.00
2023-03-06T02:50:58.977Z,557.00
2023-03-06T02:51:59.986Z,553.00
2023-03-06T02:52:59.997Z,562.00
2023-03-06T02:53:58.968Z,556.00
2023-03-06T02:54:58.977Z,548.00
2023-03-06T02:55:59.981Z,554.00
2023-03-06T02:56:59.978Z,553.00
2023-03-06T02:57:59.976Z,553.00
2023-03-06T02:58:59.986Z,558.00
2023-03-06T02:59:58.997Z,557.00
2023-03-06T03:00:59.984Z,553.00
2023-03-06T03:01:59.007Z,554.00
2023-03-06T03:02:59.032Z,549.00
2023-03-06T03:04:00.099Z,554.00
2023-03-06T03:04:59.062Z,545.00
2023-03-06T03:06:00.106Z,553.00
2023-03-06T03:06:59.103Z,553.00
2023-03-06T03:07:59.127Z,555.00
2023-03-06T03:08:59.119Z,554.00
2023-03-06T03:09:59.136Z,549.00
2023-03-06T03:11:00.145Z,551.00
2023-03-06T03:11:59.160Z,551.00
2023-03-06T03:12:59.209Z,550.00
2023-03-06T03:14:00.229Z,547.00
2023-03-06T03:14:59.217Z,550.00
2023-03-06T03:16:00.330Z,547.00
2023-03-06T03:17:00.253Z,545.00
2023-03-06T03:18:00.288Z,554.00
2023-03-06T03:19:00.329Z,554.00
2023-03-06T03:20:00.418Z,551.00
2023-03-06T03:20:59.389Z,550.00
2023-03-06T03:22:00.409Z,556.00
2023-03-06T03:22:59.427Z,550.00
2023-03-06T03:24:00.452Z,551.00
2023-03-06T03:25:00.507Z,552.00
2023-03-06T03:26:00.559Z,554.00
2023-03-06T03:27:00.560Z,545.00
2023-03-06T03:28:00.597Z,546.00
2023-03-06T03:28:59.627Z,554.00
2023-03-06T03:30:00.685Z,551.00
2023-03-06T03:31:00.760Z,549.00
2023-03-06T03:32:00.773Z,551.00
2023-03-06T03:33:00.747Z,547.00
2023-03-06T03:34:00.786Z,551.00
2023-03-06T03:35:00.876Z,548.00
2023-03-06T03:36:00.886Z,549.00
2023-03-06T03:37:00.925Z,554.00
2023-03-06T03:38:01.124Z,551.00
2023-03-06T03:39:00.020Z,551.00
2023-03-06T03:40:00.081Z,555.00
2023-03-06T03:41:01.131Z,556.00
2023-03-06T03:42:01.190Z,548.00
2023-03-06T03:43:01.253Z,546.00
2023-03-06T03:44:01.340Z,548.00
2023-03-06T03:45:00.319Z,550.00
2023-03-06T03:46:01.345Z,549.00
2023-03-06T03:47:01.360Z,551.00
2023-03-06T03:48:01.385Z,547.00
2023-03-06T03:49:01.458Z,549.00
2023-03-06T03:50:00.486Z,551.00
2023-03-06T03:51:01.498Z,546.00
2023-03-06T03:52:01.566Z,547.00
2023-03-06T03:53:01.560Z,542.00
2023-03-06T03:54:01.579Z,549.00
2023-03-06T03:55:00.590Z,548.00
2023-03-06T03:56:00.625Z,547.00
2023-03-06T03:57:00.675Z,554.00
2023-03-06T03:58:01.721Z,552.00
2023-03-06T03:59:01.775Z,552.00
2023-03-06T04:00:01.846Z,547.00
2023-03-06T04:01:01.892Z,543.00
2023-03-06T04:02:02.033Z,550.00
2023-03-06T04:03:00.971Z,551.00
2023-03-06T04:04:02.028Z,551.00
2023-03-06T04:05:01.155Z,545.00
2023-03-06T04:06:01.136Z,548.00
2023-03-06T04:07:01.165Z,550.00
2023-03-06T04:08:02.196Z,550.00
2023-03-06T04:09:02.217Z,551.00
2023-03-06T04:10:02.221Z,550.00
2023-03-06T04:11:02.539Z,540.00
2023-03-06T04:12:01.306Z,545.00
2023-03-06T04:13:02.366Z,546.00
2023-03-06T04:14:02.407Z,544.00
2023-03-06T04:15:01.434Z,542.00
2023-03-06T04:16:01.535Z,539.00
2023-03-06T04:17:01.547Z,550.00
2023-03-06T04:18:02.612Z,546.00
2023-03-06T04:19:02.665Z,545.00
2023-03-06T04:20:02.729Z,545.00
2023-03-06T04:21:02.789Z,546.00
2023-03-06T04:22:02.846Z,542.00
2023-03-06T04:23:02.916Z,542.00
2023-03-06T04:24:03.000Z,547.00
2023-03-06T04:25:03.017Z,545.00
2023-03-06T04:26:02.071Z,546.00
2023-03-06T04:27:02.098Z,547.00
2023-03-06T04:28:03.167Z,546.00
2023-03-06T04:29:03.214Z,537.00
2023-03-06T04:30:03.274Z,539.00
2023-03-06T04:31:03.407Z,539.00
2023-03-06T04:32:03.457Z,537.00
2023-03-06T04:33:02.424Z,546.00
2023-03-06T04:34:02.503Z,543.00
2023-03-06T04:35:03.574Z,539.00
2023-03-06T04:36:02.604Z,539.00
2023-03-06T04:37:03.662Z,536.00
2023-03-06T04:38:03.670Z,543.00
2023-03-06T04:39:03.786Z,542.00
2023-03-06T04:40:03.814Z,541.00
2023-03-06T04:41:03.856Z,539.00
2023-03-06T04:42:03.971Z,544.00
2023-03-06T04:43:03.996Z,547.00
2023-03-06T04:44:03.069Z,542.00
2023-03-06T04:45:04.102Z,537.00
2023-03-06T04:46:04.246Z,539.00
2023-03-06T04:47:04.199Z,543.00
2023-03-06T04:48:04.270Z,549.00
2023-03-06T04:49:04.322Z,544.00
2023-03-06T04:50:04.374Z,542.00
2023-03-06T04:51:04.460Z,540.00
2023-03-06T04:52:04.489Z,544.00
2023-03-06T04:53:04.556Z,541.00
2023-03-06T04:54:04.637Z,541.00
2023-03-06T04:55:03.646Z,537.00
2023-03-06T04:56:04.730Z,538.00
2023-03-06T04:57:03.764Z,536.00
2023-03-06T04:58:04.808Z,541.00
2023-03-06T04:59:04.901Z,539.00
2023-03-06T05:00:03.904Z,539.00
2023-03-06T05:01:05.020Z,547.00
2023-03-06T05:02:05.092Z,540.00
2023-03-06T05:03:04.093Z,537.00
2023-03-06T05:04:05.148Z,539.00
2023-03-06T05:05:05.211Z,543.00
2023-03-06T05:06:05.319Z,535.00
2023-03-06T05:07:05.352Z,535.00
2023-03-06T05:08:04.391Z,537.00
2023-03-06T05:09:05.462Z,544.00
2023-03-06T05:10:05.525Z,538.00
2023-03-06T05:11:05.599Z,543.00
2023-03-06T05:12:05.669Z,539.00
2023-03-06T05:13:04.698Z,543.00
2023-03-06T05:14:05.758Z,535.00
2023-03-06T05:15:05.818Z,537.00
2023-03-06T05:16:04.944Z,540.00
2023-03-06T05:17:05.956Z,538.00
2023-03-06T05:18:05.998Z,540.00
2023-03-06T05:19:06.201Z,536.00
2023-03-06T05:20:06.169Z,536.00
2023-03-06T05:21:06.197Z,540.00
2023-03-06T05:22:06.257Z,542.00
2023-03-06T05:23:06.315Z,538.00
2023-03-06T05:24:06.372Z,540.00
2023-03-06T05:25:06.449Z,534.00
2023-03-06T05:26:06.490Z,536.00
2023-03-06T05:27:06.549Z,541.00
2023-03-06T05:28:06.635Z,538.00
2023-03-06T05:29:05.657Z,538.00
2023-03-06T05:30:06.709Z,537.00
2023-03-06T05:31:06.780Z,532.00
2023-03-06T05:32:07.061Z,540.00
2023-03-06T05:33:06.906Z,538.00
2023-03-06T05:34:06.966Z,537.00
2023-03-06T05:35:07.027Z,534.00
2023-03-06T05:36:07.092Z,537.00
2023-03-06T05:37:07.163Z,536.00
2023-03-06T05:38:06.218Z,537.00
2023-03-06T05:39:07.271Z,541.00
2023-03-06T05:40:07.342Z,539.00
2023-03-06T05:41:07.410Z,536.00
2023-03-06T05:42:07.457Z,538.00
2023-03-06T05:43:07.527Z,535.00
2023-03-06T05:44:07.614Z,538.00
2023-03-06T05:45:06.636Z,542.00
2023-03-06T05:46:06.794Z,541.00
2023-03-06T05:47:07.775Z,532.00
2023-03-06T05:48:07.835Z,541.00
2023-03-06T05:49:07.894Z,534.00
2023-03-06T05:50:07.996Z,537.00
2023-03-06T05:51:08.045Z,540.00
2023-03-06T05:52:08.123Z,532.00
2023-03-06T05:53:07.141Z,532.00
2023-03-06T05:54:08.216Z,536.00
2023-03-06T05:55:08.276Z,534.00
2023-03-06T05:56:08.324Z,540.00
2023-03-06T05:57:08.433Z,535.00
2023-03-06T05:58:08.449Z,542.00
2023-03-06T05:59:08.506Z,537.00
2023-03-06T06:00:08.594Z,537.00
2023-03-06T06:01:08.633Z,537.00
2023-03-06T06:02:08.730Z,534.00
2023-03-06T06:03:08.796Z,535.00
2023-03-06T06:04:08.847Z,533.00
2023-03-06T06:05:10.247Z,535.00
2023-03-06T06:06:08.856Z,542.00
2023-03-06T06:07:08.860Z,546.00
2023-03-06T06:08:08.832Z,527.00
2023-03-06T06:09:08.911Z,539.00
2023-03-06T06:10:08.906Z,532.00
2023-03-06T06:11:08.806Z,528.00
2023-03-06T06:12:08.839Z,531.00
2023-03-06T06:13:08.811Z,535.00
2023-03-06T06:14:08.780Z,533.00
2023-03-06T06:15:08.866Z,540.00
2023-03-06T06:16:08.892Z,536.00
2023-03-06T06:17:08.805Z,532.00
2023-03-06T06:18:08.822Z,534.00
2023-03-06T06:19:08.799Z,533.00
2023-03-06T06:20:08.801Z,538.00
2023-03-06T06:21:08.743Z,536.00
2023-03-06T06:22:08.820Z,525.00
2023-03-06T06:23:08.736Z,536.00
2023-03-06T06:24:08.737Z,542.00
2023-03-06T06:25:08.711Z,535.00
2023-03-06T06:26:08.714Z,536.00
2023-03-06T06:27:08.790Z,547.00
2023-03-06T06:28:08.752Z,547.00
2023-03-06T06:29:08.680Z,547.00
2023-03-06T06:30:08.703Z,551.00
2023-03-06T06:31:08.785Z,549.00
2023-03-06T06:32:07.861Z,552.00
2023-03-06T06:33:08.858Z,553.00
2023-03-06T06:34:08.923Z,562.00
2023-03-06T06:35:09.022Z,563.00
2023-03-06T06:36:09.005Z,566.00
2023-03-06T06:37:08.107Z,565.00
2023-03-06T06:38:08.070Z,569.00
2023-03-06T06:39:09.148Z,568.00
2023-03-06T06:40:09.144Z,577.00
2023-03-06T06:41:36.116Z,583.00
2023-03-06T06:42:28.564Z,584.00
2023-03-06T06:43:09.188Z,584.00
2023-03-06T06:44:09.158Z,587.00
2023-03-06T06:45:08.159Z,589.00
2023-03-06T06:46:36.522Z,592.00
2023-03-06T06:47:25.785Z,585.00
2023-03-06T06:48:09.154Z,585.00
2023-03-06T06:49:09.116Z,591.00
2023-03-06T06:50:08.093Z,599.00
2023-03-06T06:51:09.100Z,611.00
2023-03-06T06:52:08.079Z,638.00
2023-03-06T06:53:09.119Z,643.00
2023-03-06T06:54:08.144Z,650.00
2023-03-06T06:55:09.054Z,650.00
2023-03-06T06:56:09.058Z,659.00
2023-03-06T06:57:08.230Z,663.00
2023-03-06T06:58:09.348Z,645.00
2023-03-06T06:59:16.609Z,702.00
2023-03-06T07:00:09.055Z,705.00
2023-03-06T07:01:09.072Z,713.00
2023-03-06T07:02:09.189Z,735.00
2023-03-06T07:03:09.050Z,935.00
2023-03-06T07:04:09.038Z,964.00
2023-03-06T07:05:09.099Z,912.00
2023-03-06T07:06:09.080Z,861.00
2023-03-06T07:07:08.039Z,839.00
2023-03-06T07:08:07.995Z,845.00
2023-03-06T07:09:08.958Z,840.00
2023-03-06T07:10:09.034Z,867.00
2023-03-06T07:11:07.944Z,881.00
2023-03-06T07:12:09.035Z,866.00
2023-03-06T07:13:08.955Z,873.00
2023-03-06T07:14:08.925Z,869.00
2023-03-06T07:15:08.941Z,901.00
2023-03-06T07:16:08.040Z,884.00
2023-03-06T07:17:08.995Z,933.00
2023-03-06T07:18:08.987Z,984.00
2023-03-06T07:19:08.937Z,954.00
2023-03-06T07:20:08.962Z,964.00
2023-03-06T07:21:08.900Z,951.00
2023-03-06T07:22:08.883Z,946.00
2023-03-06T07:23:09.141Z,950.00
2023-03-06T07:24:08.853Z,952.00
2023-03-06T07:25:08.863Z,1005.00
2023-03-06T07:26:08.848Z,984.00
2023-03-06T07:27:09.885Z,970.00
2023-03-06T07:28:09.305Z,974.00
2023-03-06T07:29:08.846Z,980.00
2023-03-06T07:30:08.884Z,994.00
2023-03-06T07:31:08.975Z,993.00
2023-03-06T07:32:08.992Z,1003.00
2023-03-06T07:33:09.020Z,1009.00
2023-03-06T07:34:09.050Z,1030.00
2023-03-06T07:35:19.800Z,1034.00
2023-03-06T07:36:10.833Z,1035.00
2023-03-06T07:37:08.078Z,1036.00
2023-03-06T07:38:09.042Z,1038.00
2023-03-06T07:39:09.076Z,1054.00
2023-03-06T07:40:09.044Z,1058.00
2023-03-06T07:41:09.032Z,1057.00
2023-03-06T07:42:09.037Z,1060.00
2023-03-06T07:43:18.600Z,1068.00
2023-03-06T07:44:09.064Z,1070.00
2023-03-06T07:45:09.012Z,1073.00
2023-03-06T07:46:09.077Z,1080.00
2023-03-06T07:47:09.091Z,1091.00
2023-03-06T07:48:08.001Z,1110.00
2023-03-06T07:49:09.009Z,1132.00
2023-03-06T07:50:09.006Z,1106.00
2023-03-06T07:51:09.046Z,1146.00
2023-03-06T07:52:09.022Z,1149.00
2023-03-06T07:53:10.821Z,1139.00
2023-03-06T07:54:08.970Z,1210.00
2023-03-06T07:55:08.940Z,1114.00
2023-03-06T07:56:09.267Z,1042.00
2023-03-06T07:59:08.929Z,1233.00
2023-03-06T08:00:08.902Z,1242.00
2023-03-06T08:01:08.896Z,1267.00
2023-03-06T08:02:08.877Z,1270.00
2023-03-06T08:03:08.958Z,1303.00
2023-03-06T08:04:08.897Z,1295.00
2023-03-06T08:05:08.899Z,1336.00
2023-03-06T08:06:08.879Z,1322.00
2023-03-06T08:07:08.873Z,1318.00
2023-03-06T08:08:08.866Z,1327.00
2023-03-06T08:09:08.848Z,1357.00
2023-03-06T08:11:08.850Z,1347.00
2023-03-06T08:12:08.829Z,1376.00
2023-03-06T08:13:08.825Z,1408.00
2023-03-06T08:14:08.820Z,1451.00
2023-03-06T08:15:08.861Z,1461.00
2023-03-06T08:16:08.842Z,1429.00
2023-03-06T08:17:07.782Z,1456.00
2023-03-06T08:18:08.832Z,1495.00
2023-03-06T08:19:09.264Z,1527.00
2023-03-06T08:21:08.852Z,1650.00
2023-03-06T08:23:08.782Z,1720.00
2023-03-06T08:24:08.757Z,1724.00
2023-03-06T08:25:08.753Z,1705.00
2023-03-06T08:26:08.731Z,1721.00
2023-03-06T08:27:07.711Z,1716.00
2023-03-06T08:28:08.795Z,1722.00
2023-03-06T08:30:08.813Z,1725.00
2023-03-06T08:31:08.730Z,1728.00
2023-03-06T08:32:08.763Z,1742.00
2023-03-06T08:33:08.699Z,1746.00
2023-03-06T08:34:07.662Z,1765.00
2023-03-06T08:35:07.743Z,1773.00
2023-03-06T08:36:08.674Z,1759.00
2023-03-06T08:37:08.694Z,1760.00
2023-03-06T08:38:08.648Z,1746.00
2023-03-06T08:39:08.629Z,1785.00
2023-03-06T08:40:07.649Z,1775.00
2023-03-06T08:41:08.630Z,1773.00
2023-03-06T08:42:08.613Z,1779.00
2023-03-06T08:43:08.623Z,1772.00
2023-03-06T08:44:07.661Z,1768.00
2023-03-06T08:45:08.573Z,1780.00
2023-03-06T08:46:08.568Z,1804.00
2023-03-06T08:47:07.562Z,1725.00
2023-03-06T08:48:08.585Z,1731.00
2023-03-06T08:49:07.651Z,1782.00
2023-03-06T08:50:07.606Z,1795.00
2023-03-06T08:51:07.558Z,1791.00
2023-03-06T08:52:08.536Z,1807.00
2023-03-06T08:53:08.539Z,1832.00
2023-03-06T08:54:07.535Z,1827.00
2023-03-06T08:55:08.533Z,1851.00
2023-03-06T08:56:08.560Z,1840.00
2023-03-06T08:57:07.509Z,1834.00
2023-03-06T08:58:08.536Z,1848.00
2023-03-06T08:59:07.500Z,1838.00
2023-03-06T09:00:07.496Z,1860.00
2023-03-06T09:01:08.501Z,1868.00
2023-03-06T09:02:08.654Z,1865.00
2023-03-06T09:03:07.509Z,1866.00
2023-03-06T09:04:07.570Z,1870.00
2023-03-06T09:05:08.627Z,1892.00
2023-03-06T09:06:07.674Z,1879.00
2023-03-06T09:07:08.761Z,1876.00
2023-03-06T09:08:08.794Z,1884.00
2023-03-06T09:09:07.906Z,1869.00
2023-03-06T09:10:08.920Z,1880.00
2023-03-06T09:11:08.971Z,1888.00
2023-03-06T09:12:09.054Z,1872.00
2023-03-06T09:13:09.089Z,1868.00
2023-03-06T09:14:09.158Z,1873.00
2023-03-06T09:15:09.230Z,1900.00
2023-03-06T09:16:09.492Z,1906.00
2023-03-06T09:17:08.320Z,1893.00
2023-03-06T09:18:09.470Z,1900.00
2023-03-06T09:19:09.438Z,1902.00
2023-03-06T09:20:10.581Z,1921.00
2023-03-06T09:21:09.584Z,1921.00
2023-03-06T09:22:08.591Z,1901.00
2023-03-06T09:23:09.698Z,1885.00
2023-03-06T09:24:09.718Z,1897.00
2023-03-06T09:25:08.765Z,1907.00
2023-03-06T09:26:09.842Z,1896.00
2023-03-06T09:27:09.892Z,1915.00
2023-03-06T09:28:11.866Z,1898.00
2023-03-06T09:29:09.989Z,1911.00
2023-03-06T09:30:09.929Z,1933.00
2023-03-06T09:31:09.948Z,1925.00
2023-03-06T09:32:12.068Z,1922.00
2023-03-06T09:33:09.915Z,1923.00
2023-03-06T09:34:09.912Z,1927.00
2023-03-06T09:35:08.895Z,1926.00
2023-03-06T09:36:09.899Z,1927.00
2023-03-06T09:37:08.895Z,1949.00
2023-03-06T09:38:09.893Z,1951.00
2023-03-06T09:39:09.875Z,1964.00
2023-03-06T09:40:09.857Z,1944.00
2023-03-06T09:41:09.869Z,1956.00
2023-03-06T09:42:09.860Z,2002.00
2023-03-06T09:43:09.844Z,1806.00
2023-03-06T09:44:09.235Z,1644.00
2023-03-06T09:45:08.838Z,1783.00
2023-03-06T09:46:09.836Z,1655.00
2023-03-06T09:47:09.802Z,1693.00
2023-03-06T09:48:09.800Z,1502.00
2023-03-06T09:49:09.795Z,1222.00
2023-03-06T09:50:09.877Z,1267.00
2023-03-06T09:51:09.783Z,1328.00
2023-03-06T09:52:09.785Z,3092.00
2023-03-06T09:53:09.768Z,1844.00
2023-03-06T09:54:09.762Z,1497.00
2023-03-06T09:55:09.743Z,1424.00
2023-03-06T09:56:08.745Z,1380.00
2023-03-06T09:57:09.756Z,1347.00
2023-03-06T09:58:09.722Z,1362.00
2023-03-06T09:59:10.174Z,1369.00
2023-03-06T10:00:09.735Z,1380.00
2023-03-06T10:01:09.719Z,1390.00
2023-03-06T10:02:08.808Z,1391.00
2023-03-06T10:03:08.862Z,1379.00
2023-03-06T10:04:09.682Z,1374.00
2023-03-06T10:05:08.716Z,1393.00
2023-03-06T10:06:08.685Z,1394.00
2023-03-06T10:07:08.720Z,1415.00
2023-03-06T10:08:09.656Z,1431.00
2023-03-06T10:09:09.658Z,1424.00
2023-03-06T10:10:08.649Z,1434.00
2023-03-06T10:11:09.641Z,1430.00
2023-03-06T10:12:09.646Z,1463.00
2023-03-06T10:13:09.635Z,1442.00
2023-03-06T10:14:08.676Z,1450.00
2023-03-06T10:15:08.751Z,1462.00
2023-03-06T10:16:09.853Z,1456.00
2023-03-06T10:17:09.808Z,1460.00
2023-03-06T10:18:09.857Z,1485.00
2023-03-06T10:19:09.919Z,1506.00
2023-03-06T10:20:09.993Z,1489.00
2023-03-06T10:21:19.090Z,1504.00
2023-03-06T10:22:10.022Z,1506.00
2023-03-06T10:23:11.171Z,1512.00
2023-03-06T10:24:10.033Z,1506.00
2023-03-06T10:25:09.001Z,1512.00
2023-03-06T10:26:10.111Z,1523.00
2023-03-06T10:27:09.034Z,1539.00
2023-03-06T10:28:09.951Z,1543.00
2023-03-06T10:29:09.974Z,1536.00
2023-03-06T10:30:08.938Z,1568.00
2023-03-06T10:31:10.602Z,1566.00
2023-03-06T10:32:09.013Z,1573.00
2023-03-06T10:33:09.937Z,1593.00
2023-03-06T10:34:09.924Z,1597.00
2023-03-06T10:35:08.929Z,1586.00
2023-03-06T10:36:09.906Z,1568.00
2023-03-06T10:37:09.906Z,1590.00
2023-03-06T10:38:09.914Z,1610.00
2023-03-06T10:39:09.943Z,1594.00
2023-03-06T10:40:09.898Z,1630.00
2023-03-06T10:41:08.870Z,1631.00
2023-03-06T10:42:09.876Z,1631.00
2023-03-06T10:43:11.906Z,1631.00
2023-03-06T10:44:09.854Z,1667.00
2023-03-06T10:45:09.867Z,1659.00
2023-03-06T10:46:08.882Z,1666.00
2023-03-06T10:47:09.855Z,1618.00
2023-03-06T10:48:09.851Z,1600.00
2023-03-06T10:49:09.184Z,1621.00
2023-03-06T10:50:09.810Z,1622.00
2023-03-06T10:51:18.088Z,1638.00
2023-03-06T10:52:09.816Z,1640.00
2023-03-06T10:53:09.798Z,1644.00
2023-03-06T10:54:10.192Z,1651.00
2023-03-06T10:57:09.763Z,1629.00
2023-03-06T10:58:09.757Z,1566.00
2023-03-06T10:59:09.741Z,1507.00
2023-03-06T11:00:09.755Z,1451.00
2023-03-06T11:01:08.744Z,1350.00
2023-03-06T11:02:09.713Z,1382.00
2023-03-06T11:03:09.715Z,1352.00
2023-03-06T11:04:09.815Z,1302.00
2023-03-06T11:05:09.693Z,1301.00
2023-03-06T11:06:12.559Z,1309.00
2023-03-06T11:07:09.726Z,1310.00
2023-03-06T11:08:09.696Z,1308.00
2023-03-06T11:09:09.717Z,1313.00
2023-03-06T11:10:09.693Z,1285.00
2023-03-06T11:11:09.677Z,1272.00
2023-03-06T11:12:09.666Z,1271.00
2023-03-06T11:13:09.638Z,1263.00
2023-03-06T11:14:08.651Z,1250.00
2023-03-06T11:15:08.630Z,1287.00
2023-03-06T11:17:09.632Z,1263.00
2023-03-06T11:18:09.622Z,1274.00
2023-03-06T11:19:09.630Z,1281.00
2023-03-06T11:20:08.640Z,1291.00
2023-03-06T11:21:08.600Z,1296.00
2023-03-06T11:22:09.606Z,1302.00
2023-03-06T11:23:08.586Z,1313.00
2023-03-06T11:24:09.614Z,1331.00
2023-03-06T11:26:09.572Z,1291.00
2023-03-06T11:28:09.554Z,1333.00
2023-03-06T11:29:08.636Z,1323.00
2023-03-06T11:30:09.536Z,1316.00
2023-03-06T11:31:09.579Z,1332.00
2023-03-06T11:32:09.576Z,1342.00
2023-03-06T11:33:09.524Z,1370.00
2023-03-06T11:34:08.518Z,1337.00
2023-03-06T11:35:09.508Z,1334.00
2023-03-06T11:37:09.477Z,1346.00
2023-03-06T11:38:09.482Z,1366.00
2023-03-06T11:39:09.516Z,1376.00
2023-03-06T11:40:09.475Z,1389.00
2023-03-06T11:41:09.462Z,1395.00
2023-03-06T11:42:08.453Z,1459.00
2023-03-06T11:43:09.440Z,1431.00
2023-03-06T11:44:09.432Z,1412.00
2023-03-06T11:45:09.455Z,1432.00
2023-03-06T11:47:09.451Z,1253.00
2023-03-06T11:48:09.404Z,1259.00
2023-03-06T11:49:09.404Z,1270.00
2023-03-06T11:50:09.393Z,1286.00
2023-03-06T11:51:09.377Z,1254.00
2023-03-06T11:52:09.436Z,1166.00
2023-03-06T11:53:08.373Z,1150.00
2023-03-06T11:54:09.383Z,1181.00
2023-03-06T11:55:09.360Z,1199.00
2023-03-06T11:56:09.357Z,1226.00
2023-03-06T11:57:09.342Z,1200.00
2023-03-06T11:58:08.365Z,1205.00
2023-03-06T11:59:09.360Z,1201.00
2023-03-06T12:00:09.327Z,1217.00
2023-03-06T12:01:08.320Z,1234.00
2023-03-06T12:02:09.347Z,1220.00
2023-03-06T12:03:09.315Z,1214.00
2023-03-06T12:04:08.318Z,1230.00
2023-03-06T12:05:09.343Z,1231.00
2023-03-06T12:06:09.284Z,1231.00
2023-03-06T12:07:09.313Z,1249.00
2023-03-06T12:08:09.371Z,1257.00
2023-03-06T12:09:09.406Z,1250.00
2023-03-06T12:10:09.433Z,1259.00
2023-03-06T12:13:08.485Z,1310.00
2023-03-06T12:14:09.517Z,1325.00
2023-03-06T12:15:08.536Z,1332.00
2023-03-06T12:16:09.592Z,1351.00
2023-03-06T12:17:09.565Z,1361.00
2023-03-06T12:19:09.597Z,1366.00
2023-03-06T12:20:09.631Z,1372.00
2023-03-06T12:21:08.628Z,1368.00
2023-03-06T12:22:09.653Z,1368.00
2023-03-06T12:23:15.255Z,1379.00
2023-03-06T12:24:09.732Z,1380.00
2023-03-06T12:25:08.657Z,1387.00
2023-03-06T12:26:09.685Z,1383.00
2023-03-06T12:30:09.704Z,1435.00
2023-03-06T12:31:09.598Z,1435.00
2023-03-06T12:32:09.734Z,1450.00
2023-03-06T12:33:08.605Z,1460.00
2023-03-06T12:34:08.573Z,1462.00
2023-03-06T12:35:08.563Z,1481.00
2023-03-06T12:37:09.577Z,1477.00
2023-03-06T12:38:09.588Z,1488.00
2023-03-06T12:39:09.564Z,1493.00
2023-03-06T12:40:09.600Z,1480.00